Time;durP1;ratioP1;P1;durP2;ratioP2;P2;SDS_P1;SDS_P2;PMS_P1;PMS_P2;Temp;Humidity;BMP_temperature;BMP_pressure;BME280_temperature;BME280_humidity;BME280_pressure;Samples;Min_cycle;Max_cycle;Signal;HPM_P1;HPM_P2
2023/07/13 00:03:08;;;;;;;18.23;12.87;;;;;;;24.51;68.51;97187.06;5016076;28;20272;-85
2023/07/13 00:06:05;;;;;;;16.43;13.30;;;;;;;24.55;68.47;97176.03;5032842;28;20252;-84
2023/07/13 00:08:42;;;;;;;15.93;13.50;;;;;;;24.79;67.71;97186.03;5015010;28;20243;-86
2023/07/13 00:11:59;;;;;;;18.07;12.80;;;;;;;24.89;67.57;97186.75;5018495;28;20723;-87
2023/07/13 00:15:24;;;;;;;19.10;13.60;;;;;;;24.83;67.87;97187.38;4998380;28;20232;-85
2023/07/13 00:18:47;;;;;;;14.53;12.07;;;;;;;24.86;67.32;97174.63;5014259;28;20594;-85
2023/07/13 00:22:10;;;;;;;15.00;12.73;;;;;;;24.78;67.77;97171.09;5048496;28;20193;-85
2023/07/13 00:25:32;;;;;;;15.33;12.67;;;;;;;24.93;67.17;97172.22;5016348;28;20697;-84
2023/07/13 00:28:58;;;;;;;15.30;12.93;;;;;;;24.96;67.28;97174.53;5032236;28;20235;-87
2023/07/13 00:32:19;;;;;;;17.33;13.53;;;;;;;24.83;67.77;97166.19;5057241;28;20303;-83
2023/07/13 00:35:43;;;;;;;16.10;12.47;;;;;;;24.79;67.87;97152.38;5034271;28;20280;-83
2023/07/13 00:39:09;;;;;;;16.77;13.33;;;;;;;24.56;68.30;97153.84;5050136;28;20204;-86
2023/07/13 00:42:31;;;;;;;19.03;14.43;;;;;;;24.39;68.75;97159.16;5068178;28;20276;-83
2023/07/13 00:45:35;;;;;;;16.17;14.00;;;;;;;23.86;71.28;97149.38;5020360;28;20643;-86
2023/07/13 00:48:59;;;;;;;16.63;13.37;;;;;;;23.77;71.41;97155.53;5002709;28;20294;-83
2023/07/13 00:52:26;;;;;;;18.57;13.77;;;;;;;23.47;72.48;97157.66;5035658;28;20279;-84
2023/07/13 00:55:48;;;;;;;17.70;13.17;;;;;;;23.51;72.44;97151.09;5049746;28;20269;-84
2023/07/13 00:59:09;;;;;;;17.93;13.67;;;;;;;23.55;71.66;97152.47;5067948;28;20236;-84
2023/07/13 01:02:30;;;;;;;17.87;14.67;;;;;;;23.40;72.08;97142.38;5035302;28;20253;-85
2023/07/13 01:05:53;;;;;;;18.97;14.53;;;;;;;23.58;71.80;97147.72;5035637;28;20348;-84
2023/07/13 01:09:15;;;;;;;16.53;13.70;;;;;;;23.42;72.10;97144.88;5035396;28;20234;-84
2023/07/13 01:12:37;;;;;;;17.97;14.40;;;;;;;23.40;71.42;97123.03;5049770;28;20210;-84
2023/07/13 01:16:22;;;;;;;19.00;13.93;;;;;;;23.49;71.07;97123.97;5020434;28;20760;-86
2023/07/13 01:19:38;;;;;;;19.17;14.93;;;;;;;23.18;71.82;97095.19;5068530;28;20203;-87
2023/07/13 01:23:04;;;;;;;20.23;15.23;;;;;;;23.31;71.57;97126.53;5036087;28;20496;-86
2023/07/13 01:26:28;;;;;;;20.80;14.73;;;;;;;23.38;71.53;97117.06;5032878;28;20272;-85
2023/07/13 01:29:52;;;;;;;20.60;15.13;;;;;;;23.52;71.52;97140.38;5065465;28;20727;-86
2023/07/13 01:33:15;;;;;;;19.30;13.93;;;;;;;23.55;71.17;97097.78;5067765;28;20680;-83
2023/07/13 01:36:36;;;;;;;19.77;13.83;;;;;;;24.05;68.93;97138.66;5049647;28;20657;-82
2023/07/13 01:39:57;;;;;;;15.87;13.30;;;;;;;24.18;68.80;97139.13;5066608;28;20209;-82
2023/07/13 01:43:18;;;;;;;21.40;14.63;;;;;;;24.24;68.51;97140.34;5016873;28;20579;-85
2023/07/13 01:46:41;;;;;;;17.63;13.57;;;;;;;24.13;68.70;97136.09;5032195;28;20781;-83
2023/07/13 01:50:34;;;;;;;16.50;13.73;;;;;;;24.00;69.54;97132.97;5050376;28;20293;-83
2023/07/13 01:53:55;;;;;;;17.13;13.77;;;;;;;23.68;70.88;97137.91;5049047;28;20202;-86
2023/07/13 01:57:17;;;;;;;18.57;14.07;;;;;;;23.18;72.02;97108.38;5053642;28;20285;-84
2023/07/13 02:00:40;;;;;;;21.50;13.47;;;;;;;22.91;73.90;97139.22;5062111;28;20214;-84
2023/07/13 02:04:01;;;;;;;18.03;13.10;;;;;;;22.79;73.59;97124.50;5038134;28;20204;-84
2023/07/13 02:07:22;;;;;;;19.13;14.00;;;;;;;22.73;74.14;97130.38;5067886;28;21123;-84
2023/07/13 02:10:44;;;;;;;17.93;14.23;;;;;;;22.82;73.29;97132.97;5050510;28;20229;-83
2023/07/13 02:13:28;;;;;;;20.20;16.27;;;;;;;22.65;73.76;97118.69;5031347;28;20235;-81
2023/07/13 02:16:49;;;;;;;19.90;15.60;;;;;;;22.61;74.73;97134.97;5035739;28;20603;-84
2023/07/13 02:20:12;;;;;;;20.30;17.40;;;;;;;22.68;74.53;97133.44;5036442;28;20210;-85
2023/07/13 02:23:37;;;;;;;20.37;18.13;;;;;;;22.84;73.89;97132.81;5067514;28;20215;-86
2023/07/13 02:27:08;;;;;;;22.70;18.07;;;;;;;22.90;73.60;97132.25;5034752;28;20559;-86
2023/07/13 02:30:40;;;;;;;20.33;17.87;;;;;;;23.23;72.76;97132.56;5063626;28;20232;-87
2023/07/13 02:34:06;;;;;;;31.30;18.03;;;;;;;23.24;71.11;97118.38;5027843;28;20204;-87
2023/07/13 02:37:51;;;;;;;22.30;17.00;;;;;;;23.31;71.84;97131.81;5048334;28;20213;-86
2023/07/13 02:41:18;;;;;;;20.37;16.57;;;;;;;23.07;72.81;97142.06;5012543;28;20210;-85
2023/07/13 02:44:44;;;;;;;19.97;16.60;;;;;;;23.23;71.89;97135.19;5012545;28;20205;-87
2023/07/13 02:48:05;;;;;;;21.80;16.53;;;;;;;23.10;72.46;97139.16;5014275;28;20531;-84
2023/07/13 02:51:27;;;;;;;21.93;17.20;;;;;;;22.97;72.28;97123.63;5045792;28;20690;-85
2023/07/13 02:54:09;;;;;;;22.73;15.63;;;;;;;22.89;72.11;97110.31;5028788;28;20236;-85
2023/07/13 02:57:32;;;;;;;22.20;16.73;;;;;;;23.25;71.12;97127.09;5025132;28;20207;-83
2023/07/13 03:00:57;;;;;;;21.07;15.03;;;;;;;23.57;70.50;97143.41;5039332;28;20685;-85
2023/07/13 03:04:27;;;;;;;20.57;16.17;;;;;;;23.23;71.13;97144.94;5029822;28;20229;-84
2023/07/13 03:07:48;;;;;;;21.07;15.70;;;;;;;22.99;72.06;97144.59;5029307;28;20201;-84
2023/07/13 03:11:10;;;;;;;20.33;15.07;;;;;;;22.48;74.01;97148.41;5011119;28;20945;-85
2023/07/13 03:14:45;;;;;;;18.63;14.90;;;;;;;22.50;73.03;97135.91;5015662;28;20227;-85
2023/07/13 03:18:11;;;;;;;20.10;15.40;;;;;;;22.39;74.39;97141.38;5055370;28;20205;-85
2023/07/13 03:21:46;;;;;;;22.17;16.53;;;;;;;22.43;75.08;97155.94;5045517;28;20216;-84
2023/07/13 03:25:28;;;;;;;27.53;17.97;;;;;;;22.63;74.98;97160.25;5030039;28;20195;-82
2023/07/13 03:28:49;;;;;;;18.93;15.10;;;;;;;22.58;75.67;97153.75;5015302;28;20229;-86
2023/07/13 03:32:11;;;;;;;19.50;14.63;;;;;;;22.95;73.98;97152.00;5030483;28;20669;-87
2023/07/13 03:35:34;;;;;;;17.50;14.17;;;;;;;22.73;74.57;97140.94;5043930;28;20206;-85
2023/07/13 03:38:55;;;;;;;17.57;14.10;;;;;;;22.65;75.05;97139.81;5031806;28;20248;-83
2023/07/13 03:42:38;;;;;;;20.43;14.83;;;;;;;22.59;75.34;97140.38;5016422;28;20292;-81
2023/07/13 03:46:00;;;;;;;22.13;15.83;;;;;;;22.54;76.01;97147.88;5031765;28;20240;-82
2023/07/13 03:49:21;;;;;;;22.27;15.03;;;;;;;22.59;75.02;97123.72;5014398;28;20253;-81
2023/07/13 03:52:44;;;;;;;16.83;14.33;;;;;;;22.98;74.68;97150.88;5030886;28;20691;-83
2023/07/13 03:56:18;;;;;;;20.23;14.07;;;;;;;23.43;72.83;97143.91;5060733;28;20216;-83
2023/07/13 03:59:43;;;;;;;16.37;13.70;;;;;;;23.70;72.14;97151.81;5041459;28;20650;-85
2023/07/13 04:03:07;;;;;;;18.87;13.30;;;;;;;24.17;69.79;97163.91;5034448;28;20294;-84
2023/07/13 04:06:32;;;;;;;18.70;14.10;;;;;;;24.41;68.64;97160.69;5068328;28;20226;-83
2023/07/13 04:09:39;;;;;;;17.90;14.50;;;;;;;24.59;66.13;97142.09;5050048;28;20326;-82
2023/07/13 04:12:24;;;;;;;21.30;17.23;;;;;;;24.95;65.28;97159.63;5040244;28;20210;-83
2023/07/13 04:14:55;;;;;;;23.10;18.20;;;;;;;25.00;65.21;97159.97;5008519;28;20703;-83
2023/07/13 04:17:23;;;;;;;22.87;19.13;;;;;;;25.16;64.20;97141.53;5049620;28;20272;-82
2023/07/13 04:19:55;;;;;;;25.43;20.43;;;;;;;25.37;63.29;97143.81;5019076;28;20617;-84
2023/07/13 04:22:40;;;;;;;21.07;18.87;;;;;;;25.36;63.54;97147.44;5068799;28;20186;-84
2023/07/13 04:25:21;;;;;;;25.90;20.33;;;;;;;25.53;63.55;97165.91;5021946;28;20196;-85
2023/07/13 04:27:50;;;;;;;22.50;18.70;;;;;;;24.57;63.81;96993.97;5034901;28;20601;-86
2023/07/13 04:30:28;;;;;;;24.43;17.07;;;;;;;25.59;63.64;97169.78;5036826;28;20601;-84
2023/07/13 04:33:43;;;;;;;20.67;17.87;;;;;;;25.63;63.75;97169.31;5054437;28;20593;-82
2023/07/13 04:37:07;;;;;;;19.13;15.83;;;;;;;25.56;63.68;97165.63;5049499;28;20205;-83
2023/07/13 04:39:50;;;;;;;18.07;16.17;;;;;;;25.77;62.78;97179.31;5051110;28;20724;-83
2023/07/13 04:42:59;;;;;;;22.93;17.77;;;;;;;25.57;63.80;97171.75;5050427;28;20640;-85
2023/07/13 04:45:41;;;;;;;22.03;17.63;;;;;;;25.50;63.28;97145.03;5035035;28;20200;-83
2023/07/13 04:52:53;;;;;;;21.17;17.80;;;;;;;25.93;62.57;97193.59;5014259;28;20289;-84
2023/07/13 04:56:19;;;;;;;19.50;16.90;;;;;;;25.94;62.83;97185.50;5015895;28;20194;-82
2023/07/13 04:59:43;;;;;;;20.43;17.00;;;;;;;26.26;62.45;97187.41;5017041;28;20680;-83
2023/07/13 05:03:08;;;;;;;20.63;16.67;;;;;;;26.43;62.01;97189.09;5045435;28;20205;-83
2023/07/13 05:06:38;;;;;;;23.90;17.83;;;;;;;26.66;61.07;97191.94;5029695;28;20696;-86
2023/07/13 05:10:01;;;;;;;26.47;17.00;;;;;;;26.85;60.34;97192.47;5015827;28;20315;-83
2023/07/13 05:13:30;;;;;;;24.60;16.57;;;;;;;27.06;59.84;97194.63;5030274;28;20252;-82
2023/07/13 05:16:52;;;;;;;19.53;16.70;;;;;;;27.57;58.60;97193.34;5014139;28;20299;-84
2023/07/13 05:20:14;;;;;;;19.37;16.50;;;;;;;27.38;58.47;97179.44;5046960;28;20194;-84
2023/07/13 05:24:04;;;;;;;22.30;17.70;;;;;;;26.95;58.31;97073.50;5035511;28;20206;-84
2023/07/13 05:27:26;;;;;;;21.33;16.53;;;;;;;28.23;57.21;97180.41;5015859;28;20627;-83
2023/07/13 05:30:53;;;;;;;19.57;16.73;;;;;;;28.68;55.27;97190.28;5034417;28;20624;-84
2023/07/13 05:34:22;;;;;;;17.97;15.27;;;;;;;28.71;54.01;97198.75;5033811;28;20218;-84
2023/07/13 05:38:17;;;;;;;21.97;15.70;;;;;;;29.00;54.27;97199.84;5049050;28;20217;-84
2023/07/13 05:41:40;;;;;;;22.93;15.13;;;;;;;28.95;53.15;97187.84;5052986;28;20214;-82
2023/07/13 05:44:35;;;;;;;17.57;15.27;;;;;;;29.09;53.24;97209.41;5023094;28;20202;-86
2023/07/13 05:52:06;;;;;;;17.13;14.57;;;;;;;29.54;52.20;97210.16;5050505;28;20201;-82
2023/07/13 05:59:38;;;;;;;21.13;14.37;;;;;;;29.78;51.91;97194.91;5048398;28;20938;-82
2023/07/13 06:03:02;;;;;;;21.63;14.83;;;;;;;30.06;50.83;97209.22;4996973;28;20206;-84
2023/07/13 06:06:36;;;;;;;21.23;14.87;;;;;;;30.19;49.73;97207.53;5014312;28;20251;-81
2023/07/13 06:10:07;;;;;;;17.83;13.83;;;;;;;30.29;49.44;97207.25;5037011;28;20737;-82
2023/07/13 06:13:38;;;;;;;22.57;14.00;;;;;;;30.21;49.10;97204.69;5045278;28;20227;-80
2023/07/13 06:17:06;;;;;;;18.60;13.50;;;;;;;30.28;49.38;97213.59;5028073;28;20266;-84
2023/07/13 06:19:49;;;;;;;18.03;13.50;;;;;;;30.33;49.52;97198.69;5027790;28;20194;-84
2023/07/13 06:22:22;;;;;;;18.20;14.17;;;;;;;30.52;48.35;97206.06;5033067;28;20715;-83
2023/07/13 06:25:50;;;;;;;16.47;14.57;;;;;;;30.64;48.86;97214.44;5033859;28;20256;-83
2023/07/13 06:29:36;;;;;;;19.03;14.90;;;;;;;30.69;48.27;97208.47;5016551;28;20240;-84
2023/07/13 06:33:38;;;;;;;16.20;13.50;;;;;;;31.01;48.03;97202.66;5006094;28;20227;-83
2023/07/13 06:37:48;;;;;;;;;;;;;;;;;;;;;
2023/07/13 06:41:24;;;;;;;14.27;12.60;;;;;;;30.64;47.03;97095.94;5017507;28;20232;-82
2023/07/13 06:45:35;;;;;;;19.88;12.10;;;;;;;31.41;46.23;97193.91;5012633;28;20701;-80
2023/07/13 06:49:45;;;;;;;21.75;12.35;;;;;;;31.63;45.90;97195.50;5024994;28;20230;-83
2023/07/13 06:53:28;;;;;;;20.52;12.23;;;;;;;31.65;46.77;97196.13;4997777;28;20227;-82
2023/07/13 06:56:59;;;;;;;16.42;12.18;;;;;;;31.59;46.11;97177.34;4980996;28;20360;-82
2023/07/13 07:00:22;;;;;;;19.67;12.10;;;;;;;31.79;45.68;97188.97;4974043;28;20199;-80
2023/07/13 07:03:29;;;;;;;18.60;11.98;;;;;;;31.99;46.28;97187.25;5004654;28;20195;-82
2023/07/13 07:07:10;;;;;;;18.02;11.95;;;;;;;32.28;44.58;97191.47;4964087;28;20668;-82
2023/07/13 07:10:45;;;;;;;17.50;11.63;;;;;;;32.10;45.30;97186.69;5048654;28;20225;-84
2023/07/13 07:14:14;;;;;;;18.58;11.10;;;;;;;32.17;44.09;97200.09;5062705;28;20214;-79
2023/07/13 07:17:43;;;;;;;15.32;11.63;;;;;;;32.36;44.14;97196.63;5065858;28;20207;-82
2023/07/13 07:21:06;;;;;;;15.23;11.50;;;;;;;32.42;43.14;97179.78;5047927;28;20313;-81
2023/07/13 07:24:31;;;;;;;13.80;11.02;;;;;;;32.27;43.02;97165.69;5049906;28;20208;-82
2023/07/13 07:27:53;;;;;;;13.15;10.05;;;;;;;32.61;42.58;97195.09;5049683;28;20193;-84
2023/07/13 07:31:18;;;;;;;18.42;10.45;;;;;;;32.83;41.49;97189.31;5036193;28;20232;-83
2023/07/13 07:34:40;;;;;;;15.50;10.30;;;;;;;32.80;41.63;97172.81;5048890;28;20197;-82
2023/07/13 07:38:09;;;;;;;12.88;9.43;;;;;;;32.97;41.71;97183.97;5049709;28;20216;-80
2023/07/13 07:41:30;;;;;;;12.63;9.93;;;;;;;33.03;40.98;97172.44;5033381;28;20204;-81
2023/07/13 07:44:52;;;;;;;14.07;10.52;;;;;;;33.34;40.48;97176.13;5035572;28;20652;-83
2023/07/13 07:48:30;;;;;;;11.07;9.48;;;;;;;33.44;40.37;97171.16;5047450;28;20194;-82
2023/07/13 07:51:59;;;;;;;14.60;10.27;;;;;;;33.22;40.57;97152.81;5047356;28;20199;-82
2023/07/13 07:55:21;;;;;;;13.63;10.45;;;;;;;33.41;40.06;97155.44;5033159;28;20201;-85
2023/07/13 07:58:43;;;;;;;15.05;9.40;;;;;;;33.48;40.67;97183.13;5066530;28;20196;-81
2023/07/13 08:01:40;;;;;;;12.05;10.18;;;;;;;33.42;40.60;97167.84;5054053;28;20201;-84
2023/07/13 08:05:24;;;;;;;13.32;10.70;;;;;;;33.52;41.26;97178.19;5035769;28;20200;-81
2023/07/13 08:08:56;;;;;;;17.52;11.50;;;;;;;33.49;40.67;97166.00;5063214;28;20204;-80
2023/07/13 08:12:18;;;;;;;16.48;11.13;;;;;;;33.57;39.98;97176.50;5052285;28;20213;-82
2023/07/13 08:15:43;;;;;;;17.48;10.43;;;;;;;33.59;39.66;97163.69;5054824;28;20783;-83
2023/07/13 08:18:50;;;;;;;12.35;8.93;;;;;;;33.68;39.97;97177.72;5050675;28;20208;-83
2023/07/13 08:21:21;;;;;;;11.50;10.05;;;;;;;33.57;39.31;97171.13;5050588;28;20248;-82
2023/07/13 08:23:54;;;;;;;12.13;9.45;;;;;;;33.69;38.82;97167.81;5052524;28;20205;-86
2023/07/13 08:26:36;;;;;;;13.35;8.77;;;;;;;33.55;39.15;97137.47;5035617;28;20755;-84
2023/07/13 08:29:05;;;;;;;13.10;8.93;;;;;;;33.62;37.79;97139.09;5050249;28;20236;-81
2023/07/13 08:31:34;;;;;;;14.55;9.52;;;;;;;33.75;37.99;97161.59;5070255;28;20669;-83
2023/07/13 08:34:15;;;;;;;13.95;9.48;;;;;;;33.89;39.08;97153.25;5052340;28;20616;-83
2023/07/13 08:36:44;;;;;;;9.85;8.75;;;;;;;34.14;37.41;97156.06;5035999;28;20205;-83
2023/07/13 08:39:17;;;;;;;11.00;9.00;;;;;;;34.37;37.98;97183.25;5051009;28;20288;-81
2023/07/13 08:42:07;;;;;;;10.07;8.00;;;;;;;34.37;37.49;97177.88;5069819;28;20818;-81
2023/07/13 08:44:55;;;;;;;10.63;8.65;;;;;;;34.34;37.00;97162.16;5067556;28;20197;-85
2023/07/13 08:48:30;;;;;;;10.40;8.75;;;;;;;34.19;37.68;97169.72;5049568;28;20688;-84
2023/07/13 08:51:18;;;;;;;12.52;8.93;;;;;;;34.16;36.22;97170.97;5050248;28;20232;-80
2023/07/13 08:54:00;;;;;;;9.45;8.00;;;;;;;34.17;35.64;97150.28;5036679;28;20205;-81
2023/07/13 08:57:02;;;;;;;12.75;8.93;;;;;;;34.36;36.20;97149.31;5051627;28;20201;-82
2023/07/13 08:59:47;;;;;;;10.63;8.30;;;;;;;34.44;36.01;97155.28;5048706;28;20220;-83
2023/07/13 09:02:40;;;;;;;10.52;8.18;;;;;;;34.86;34.72;97166.38;5071117;28;20247;-80
2023/07/13 09:05:34;;;;;;;11.23;8.18;;;;;;;34.95;34.24;97165.88;5068990;28;20685;-83
2023/07/13 09:08:33;;;;;;;7.90;7.10;;;;;;;34.96;33.08;97159.47;5068988;28;20292;-82
2023/07/13 09:11:11;;;;;;;10.50;7.53;;;;;;;34.93;33.60;97164.47;5070543;28;20673;-81
2023/07/13 09:14:08;;;;;;;11.82;7.00;;;;;;;34.95;34.02;97144.34;5045554;28;20296;-81
2023/07/13 09:16:46;;;;;;;11.75;7.10;;;;;;;34.96;33.46;97154.09;5064216;28;20212;-81
2023/07/13 09:19:26;;;;;;;10.27;8.15;;;;;;;35.11;33.66;97154.63;5038510;28;20676;-81
2023/07/13 09:22:02;;;;;;;7.82;6.97;;;;;;;35.20;33.18;97155.13;5034599;28;20680;-81
2023/07/13 09:24:59;;;;;;;8.60;6.70;;;;;;;34.82;34.16;97149.03;5040863;28;20189;-81
2023/07/13 09:27:45;;;;;;;10.30;7.55;;;;;;;34.96;33.47;97143.31;5048385;28;20216;-82
2023/07/13 09:30:16;;;;;;;6.90;6.10;;;;;;;35.20;32.72;97142.50;5010714;28;20224;-82
2023/07/13 09:32:52;;;;;;;8.00;6.60;;;;;;;34.87;33.06;97093.47;5020217;28;20268;-82
2023/07/13 09:35:38;;;;;;;6.93;5.50;;;;;;;35.24;32.69;97131.28;5010282;28;20557;-82
2023/07/13 09:38:17;;;;;;;8.75;6.70;;;;;;;34.99;32.22;97061.31;5027728;28;20206;-82
2023/07/13 09:41:23;;;;;;;10.93;7.05;;;;;;;35.52;32.92;97132.47;5008636;28;20213;-80
2023/07/13 09:44:43;;;;;;;8.20;6.47;;;;;;;35.55;32.64;97125.81;5013086;28;20215;-83
2023/07/13 09:47:32;;;;;;;8.35;6.03;;;;;;;35.51;32.08;97105.75;5010228;28;20198;-82
2023/07/13 09:50:08;;;;;;;9.00;6.82;;;;;;;35.09;34.04;97089.38;5011111;28;20323;-83
2023/07/13 09:52:54;;;;;;;8.90;7.45;;;;;;;35.26;33.97;97100.41;5025578;28;20205;-83
2023/07/13 09:55:44;;;;;;;7.57;6.40;;;;;;;35.40;33.49;97114.53;5026872;28;20721;-82
2023/07/13 09:58:40;;;;;;;13.95;7.45;;;;;;;35.44;34.97;97108.47;4996628;28;20201;-84
2023/07/13 10:01:42;;;;;;;9.75;7.25;;;;;;;35.46;34.55;97097.47;5027946;28;20622;-84
2023/07/13 10:04:18;;;;;;;9.88;8.00;;;;;;;35.60;35.24;97107.06;5010225;28;20206;-80
2023/07/13 10:06:48;;;;;;;11.57;7.72;;;;;;;35.58;34.91;97101.09;5011895;28;20198;-82
2023/07/13 10:09:32;;;;;;;11.43;7.78;;;;;;;35.86;33.95;97114.88;5027012;28;20777;-81
2023/07/13 10:12:02;;;;;;;11.07;7.82;;;;;;;35.95;33.17;97102.72;5026605;28;20203;-81
2023/07/13 10:14:44;;;;;;;14.73;6.97;;;;;;;36.06;34.25;97093.88;5025730;28;20202;-81
2023/07/13 10:17:27;;;;;;;9.13;6.65;;;;;;;35.80;33.62;97080.69;5007641;28;20233;-82
2023/07/13 10:20:20;;;;;;;10.95;7.28;;;;;;;35.79;33.36;97095.22;5028740;28;20195;-81
2023/07/13 10:23:09;;;;;;;9.55;8.13;;;;;;;36.11;34.38;97096.69;5025486;28;20790;-81
2023/07/13 10:26:04;;;;;;;9.38;7.22;;;;;;;36.16;34.15;97071.72;5011310;28;20242;-80
2023/07/13 10:28:38;;;;;;;9.50;7.78;;;;;;;35.84;34.42;97087.28;5017184;28;20237;-78
2023/07/13 10:31:13;;;;;;;11.25;9.13;;;;;;;36.00;34.79;97073.22;5047367;28;20256;-82
2023/07/13 10:33:45;;;;;;;12.32;7.55;;;;;;;36.11;35.01;97071.63;5033011;28;20197;-81
2023/07/13 10:36:16;;;;;;;9.02;7.68;;;;;;;36.18;35.38;97088.50;5012603;28;20689;-81
2023/07/13 10:38:53;;;;;;;10.68;7.75;;;;;;;35.55;36.41;97064.63;5029583;28;20685;-81
2023/07/13 10:41:42;;;;;;;9.05;7.70;;;;;;;35.72;35.44;97097.19;5014501;28;20744;-80
2023/07/13 10:44:44;;;;;;;10.07;7.88;;;;;;;35.49;35.45;97002.75;5019252;28;20254;-81
2023/07/13 10:47:23;;;;;;;11.45;8.40;;;;;;;35.88;34.98;97092.00;5015442;28;20627;-80
2023/07/13 10:49:58;;;;;;;8.45;7.32;;;;;;;35.40;36.75;97076.81;5029366;28;20291;-82
2023/07/13 10:52:51;;;;;;;9.30;7.32;;;;;;;35.65;36.30;97062.25;5014407;28;20699;-79
2023/07/13 10:56:11;;;;;;;11.88;7.88;;;;;;;35.94;35.85;97082.22;5047903;28;20208;-79
2023/07/13 10:58:44;;;;;;;9.10;7.35;;;;;;;36.23;34.86;97078.66;5001098;28;20210;-79
2023/07/13 11:01:20;;;;;;;7.95;7.15;;;;;;;36.28;34.93;97070.72;5013770;28;20197;-84
2023/07/13 11:04:02;;;;;;;12.32;8.60;;;;;;;36.07;35.79;97073.13;5030428;28;20225;-79
2023/07/13 11:06:41;;;;;;;7.78;6.32;;;;;;;36.07;33.66;97079.31;4980791;28;20263;-80
2023/07/13 11:09:32;;;;;;;10.45;7.07;;;;;;;36.24;34.02;97074.94;5029859;28;20590;-81
2023/07/13 11:12:14;;;;;;;11.60;6.82;;;;;;;35.99;33.83;97071.56;5038022;28;20207;-84
2023/07/13 11:14:54;;;;;;;12.25;7.45;;;;;;;36.13;33.02;97064.91;5046756;28;20607;-83
2023/07/13 11:17:51;;;;;;;8.38;6.18;;;;;;;36.17;33.72;97074.19;5067131;28;20219;-81
2023/07/13 11:20:30;;;;;;;9.65;6.65;;;;;;;36.02;33.09;97049.53;5032221;28;20292;-82
2023/07/13 11:23:32;;;;;;;7.70;6.38;;;;;;;36.35;32.99;97071.44;5017016;28;20239;-82
2023/07/13 11:26:05;;;;;;;8.07;6.65;;;;;;;36.49;31.87;97064.81;5029528;28;20208;-82
2023/07/13 11:28:35;;;;;;;11.85;8.23;;;;;;;36.67;31.72;97066.59;5066223;28;20232;-83
2023/07/13 11:31:15;;;;;;;6.22;5.53;;;;;;;36.64;31.53;97069.75;5015188;28;20236;-82
2023/07/13 11:33:52;;;;;;;6.47;5.85;;;;;;;36.53;31.04;97039.00;5067007;28;20193;-81
2023/07/13 11:36:24;;;;;;;11.65;8.30;;;;;;;36.86;30.92;97062.72;5030349;28;20262;-83
2023/07/13 11:38:59;;;;;;;7.72;5.47;;;;;;;36.38;30.55;97037.75;5066455;28;20200;-80
2023/07/13 11:41:51;;;;;;;7.35;5.68;;;;;;;36.36;30.51;97043.41;5033569;28;20200;-79
2023/07/13 11:44:26;;;;;;;8.30;5.20;;;;;;;36.72;29.89;97051.34;5066469;28;20195;-80
2023/07/13 11:47:00;;;;;;;6.65;5.40;;;;;;;36.77;29.81;97047.91;5053094;28;20319;-83
2023/07/13 11:49:39;;;;;;;7.43;5.53;;;;;;;36.27;30.23;97031.28;5003768;28;20197;-83
2023/07/13 11:52:14;;;;;;;9.40;5.63;;;;;;;36.03;30.55;97034.16;5051936;28;20223;-82
2023/07/13 11:54:51;;;;;;;5.38;4.78;;;;;;;36.03;30.54;97034.16;5019348;28;20201;-82
2023/07/13 11:57:28;;;;;;;9.18;6.18;;;;;;;36.24;30.47;97047.94;5034189;28;20635;-82
2023/07/13 12:00:19;;;;;;;8.57;6.10;;;;;;;35.89;32.16;97039.72;5036259;28;20212;-82
2023/07/13 12:02:52;;;;;;;8.02;5.10;;;;;;;36.04;31.41;97049.28;5069080;28;20209;-81
2023/07/13 12:05:24;;;;;;;7.35;6.13;;;;;;;35.88;31.84;97021.88;5051994;28;20262;-81
2023/07/13 12:07:54;;;;;;;8.05;5.63;;;;;;;35.93;31.33;97032.00;5035501;28;20208;-84
2023/07/13 12:10:32;;;;;;;9.50;6.18;;;;;;;36.04;32.52;97036.63;5019325;28;20728;-81
2023/07/13 12:13:10;;;;;;;5.97;5.10;;;;;;;36.36;31.74;97032.59;5070476;28;20213;-83
2023/07/13 12:15:54;;;;;;;8.27;5.93;;;;;;;36.13;31.55;97013.66;5039347;28;20221;-82
2023/07/13 12:18:30;;;;;;;10.13;6.72;;;;;;;36.21;32.26;97005.22;5035842;28;20299;-84
2023/07/13 12:21:02;;;;;;;6.57;5.88;;;;;;;36.48;30.96;97009.19;5035365;28;20208;-80
2023/07/13 12:23:35;;;;;;;9.10;6.18;;;;;;;36.70;31.64;97018.34;5050875;28;20201;-81
2023/07/13 12:26:09;;;;;;;8.18;6.18;;;;;;;36.83;31.75;97000.28;5052107;28;20974;-79
2023/07/13 12:28:49;;;;;;;9.00;6.40;;;;;;;37.18;30.60;97017.28;5021599;28;20248;-84
2023/07/13 12:31:26;;;;;;;7.80;5.95;;;;;;;37.22;30.42;97008.44;5043953;28;20240;-79
2023/07/13 12:34:08;;;;;;;9.75;6.97;;;;;;;37.36;30.44;97009.88;5020750;28;20197;-80
2023/07/13 12:36:42;;;;;;;17.10;7.80;;;;;;;37.48;30.26;97012.53;5028813;28;20202;-86
2023/07/13 12:39:23;;;;;;;8.93;6.43;;;;;;;37.70;29.51;97010.81;5000690;28;20205;-80
2023/07/13 12:41:53;;;;;;;11.13;7.32;;;;;;;37.78;29.71;97006.88;5048572;28;20217;-79
2023/07/13 12:44:29;;;;;;;13.43;7.57;;;;;;;37.75;29.13;97002.81;5031819;28;20200;-85
2023/07/13 12:47:11;;;;;;;10.35;6.07;;;;;;;37.60;29.29;97002.50;5015513;28;20209;-79
2023/07/13 12:49:48;;;;;;;9.77;6.38;;;;;;;37.59;28.89;96987.34;5030061;28;20209;-82
2023/07/13 12:52:30;;;;;;;9.45;6.28;;;;;;;37.39;30.16;96995.88;5015947;28;20205;-81
2023/07/13 12:55:09;;;;;;;12.63;7.20;;;;;;;37.33;30.53;96987.91;5031085;28;20193;-82
2023/07/13 12:57:56;;;;;;;11.93;7.93;;;;;;;37.55;29.38;96972.66;5030226;28;20623;-81
2023/07/13 13:00:52;;;;;;;12.57;6.53;;;;;;;37.52;29.34;96951.53;5031521;28;20265;-80
2023/07/13 13:03:35;;;;;;;9.65;6.47;;;;;;;37.61;29.69;96976.28;5029965;28;20217;-81
2023/07/13 13:06:23;;;;;;;8.98;6.45;;;;;;;37.60;29.41;96978.16;5013593;28;20232;-80
2023/07/13 13:08:58;;;;;;;12.00;6.93;;;;;;;37.31;29.48;96952.97;5031100;28;20202;-83
2023/07/13 13:11:31;;;;;;;12.20;7.10;;;;;;;37.58;29.87;96974.88;5030000;28;20234;-83
2023/07/13 13:14:00;;;;;;;10.68;6.30;;;;;;;37.67;29.35;96961.81;4999564;28;20201;-83
2023/07/13 13:16:33;;;;;;;9.68;6.40;;;;;;;37.64;29.91;96956.88;4997869;28;20206;-80
2023/07/13 13:19:14;;;;;;;10.77;6.55;;;;;;;37.36;29.59;96955.81;5014869;28;20208;-83
2023/07/13 13:21:46;;;;;;;12.85;7.40;;;;;;;37.27;30.14;96923.97;5031023;28;20800;-79
2023/07/13 13:24:17;;;;;;;14.05;7.88;;;;;;;37.39;29.91;96952.63;5013257;28;20319;-82
2023/07/13 13:26:52;;;;;;;13.90;7.18;;;;;;;37.43;30.39;96952.97;5031106;28;20206;-80
2023/07/13 13:29:38;;;;;;;8.70;6.72;;;;;;;37.23;29.35;96939.84;5031869;28;20312;-81
2023/07/13 13:32:14;;;;;;;12.00;6.93;;;;;;;37.37;30.22;96956.63;5031426;28;20230;-80
2023/07/13 13:34:43;;;;;;;10.57;6.18;;;;;;;37.41;30.15;96952.38;5014494;28;20773;-82
2023/07/13 13:37:25;;;;;;;9.00;6.63;;;;;;;37.54;30.08;96941.28;5029655;28;20204;-82
2023/07/13 13:39:55;;;;;;;9.55;7.20;;;;;;;37.44;29.51;96941.94;5030778;28;20684;-83
2023/07/13 13:42:36;;;;;;;14.88;9.30;;;;;;;37.63;30.26;96929.03;5029548;28;20673;-82
2023/07/13 13:45:04;;;;;;;12.13;7.60;;;;;;;37.55;31.57;96937.50;4997801;28;20197;-82
2023/07/13 13:47:41;;;;;;;12.48;6.53;;;;;;;37.59;31.32;96930.59;5029272;28;20292;-83
2023/07/13 13:50:18;;;;;;;10.50;6.80;;;;;;;37.48;31.44;96934.16;5047161;28;20616;-81
2023/07/13 13:52:46;;;;;;;9.52;7.20;;;;;;;37.48;30.86;96909.81;5017826;28;20221;-82
2023/07/13 13:55:20;;;;;;;10.50;6.30;;;;;;;37.42;30.63;96927.00;5037471;28;20300;-81
2023/07/13 13:57:54;;;;;;;14.32;6.72;;;;;;;37.29;31.17;96911.88;5013930;28;20296;-84
2023/07/13 14:00:45;;;;;;;10.75;6.85;;;;;;;37.46;30.88;96920.88;5047385;28;20225;-86
2023/07/13 14:03:18;;;;;;;13.65;7.30;;;;;;;37.51;31.92;96917.44;5002965;28;20244;-86
2023/07/13 14:05:54;;;;;;;9.05;6.13;;;;;;;37.13;30.58;96926.16;5067450;28;20680;-86
2023/07/13 14:08:22;;;;;;;12.52;7.28;;;;;;;37.36;30.30;96914.47;5032341;28;20633;-83
2023/07/13 14:10:55;;;;;;;13.75;7.50;;;;;;;37.57;29.71;96924.59;5033051;28;20233;-82
2023/07/13 14:13:31;;;;;;;15.18;7.53;;;;;;;37.70;30.11;96923.44;5013033;28;20255;-80
2023/07/13 14:16:03;;;;;;;12.43;6.57;;;;;;;37.70;29.59;96928.84;5036309;28;20201;-83
2023/07/13 14:18:38;;;;;;;10.60;7.18;;;;;;;37.57;30.26;96926.47;5021520;28;20585;-82